createdAt,value
2023-04-29T00:00:43.729Z,54.37
2023-04-29T00:03:10.746Z,54.80
2023-04-29T00:05:37.604Z,53.63
2023-04-29T00:08:04.703Z,49.60
2023-04-29T00:10:31.250Z,53.20
2023-04-29T00:12:57.819Z,58.67
2023-04-29T00:15:24.448Z,60.17
2023-04-29T00:17:51.015Z,53.77
2023-04-29T00:20:17.657Z,57.07
2023-04-29T00:22:44.160Z,57.17
2023-04-29T00:25:11.861Z,54.97
2023-04-29T00:27:39.369Z,52.60
2023-04-29T00:30:08.140Z,64.90
2023-04-29T00:32:34.698Z,55.23
2023-04-29T00:35:01.659Z,52.67
2023-04-29T00:37:28.262Z,50.90
2023-04-29T00:39:55.007Z,48.93
2023-04-29T00:42:22.374Z,52.37
2023-04-29T00:44:48.918Z,53.97
2023-04-29T00:47:15.438Z,51.67
2023-04-29T00:49:42.066Z,48.90
2023-04-29T00:52:10.000Z,49.20
2023-04-29T00:54:37.688Z,49.77
2023-04-29T00:57:07.077Z,48.73
2023-04-29T00:59:34.404Z,49.63
2023-04-29T01:02:02.922Z,56.00
2023-04-29T01:04:30.125Z,58.83
2023-04-29T01:07:15.457Z,60.27
2023-04-29T01:10:02.870Z,60.57
2023-04-29T01:12:47.218Z,60.73
2023-04-29T01:15:33.479Z,58.83
2023-04-29T01:18:05.029Z,59.50
2023-04-29T01:20:33.300Z,63.70
2023-04-29T01:22:59.803Z,62.27
2023-04-29T01:25:26.923Z,67.37
2023-04-29T01:28:07.888Z,64.83
2023-04-29T01:30:43.122Z,70.23
2023-04-29T01:33:32.183Z,68.33
2023-04-29T01:36:22.073Z,71.43
2023-04-29T01:39:06.868Z,70.67
2023-04-29T01:41:39.352Z,67.67
2023-04-29T01:44:08.772Z,75.63
2023-04-29T01:46:35.889Z,69.30
2023-04-29T01:49:02.458Z,68.57
2023-04-29T01:51:29.651Z,70.80
2023-04-29T01:53:56.881Z,66.30
2023-04-29T01:56:23.596Z,75.90
2023-04-29T01:58:50.156Z,67.30
2023-04-29T02:01:16.717Z,74.67
2023-04-29T02:03:43.428Z,83.27
2023-04-29T02:06:10.120Z,82.33
2023-04-29T02:08:37.253Z,91.60
2023-04-29T02:11:03.935Z,84.00
2023-04-29T02:13:30.494Z,83.60
2023-04-29T02:15:57.164Z,83.63
2023-04-29T02:18:23.961Z,94.33
2023-04-29T02:20:51.562Z,91.87
2023-04-29T02:23:18.332Z,101.73
2023-04-29T02:25:44.886Z,101.70
2023-04-29T02:28:12.015Z,99.93
2023-04-29T02:30:38.535Z,106.80
2023-04-29T02:33:07.761Z,110.87
2023-04-29T02:35:35.004Z,108.47
2023-04-29T02:38:01.771Z,107.40
2023-04-29T02:40:28.866Z,115.17
2023-04-29T02:42:55.412Z,108.73
2023-04-29T02:45:22.420Z,106.23
2023-04-29T02:47:49.075Z,113.80
2023-04-29T02:50:15.734Z,125.97
2023-04-29T02:52:42.269Z,103.80
2023-04-29T02:55:09.357Z,112.97
2023-04-29T02:57:35.849Z,115.37
2023-04-29T03:00:03.799Z,114.30
2023-04-29T03:02:30.422Z,116.73
2023-04-29T03:04:56.951Z,129.27
2023-04-29T03:07:23.508Z,124.50
2023-04-29T03:09:50.109Z,122.10
2023-04-29T03:12:16.729Z,115.67
2023-04-29T03:14:43.331Z,125.87
2023-04-29T03:17:10.069Z,126.10
2023-04-29T03:19:36.584Z,124.67
2023-04-29T03:22:03.134Z,117.60
2023-04-29T03:24:29.674Z,114.30
2023-04-29T03:26:56.262Z,108.93
2023-04-29T03:29:22.881Z,106.10
2023-04-29T03:31:49.453Z,97.40
2023-04-29T03:34:16.084Z,96.30
2023-04-29T03:36:42.580Z,95.17
2023-04-29T03:39:09.173Z,89.77
2023-04-29T03:41:35.777Z,83.57
2023-04-29T03:44:02.453Z,77.13
2023-04-29T03:46:29.302Z,71.27
2023-04-29T03:48:58.620Z,72.67
2023-04-29T03:51:25.866Z,74.30
2023-04-29T03:53:54.512Z,68.43
2023-04-29T03:56:21.151Z,72.63
2023-04-29T03:58:47.632Z,64.53
2023-04-29T04:01:15.187Z,65.23
2023-04-29T04:03:43.406Z,63.17
2023-04-29T04:06:10.093Z,64.83
2023-04-29T04:08:36.681Z,62.67
2023-04-29T04:11:03.299Z,70.20
2023-04-29T04:13:29.961Z,64.97
2023-04-29T04:15:56.670Z,70.37
2023-04-29T04:18:23.273Z,58.53
2023-04-29T04:20:49.790Z,66.63
2023-04-29T04:23:16.430Z,67.17
2023-04-29T04:25:47.024Z,61.40
2023-04-29T04:28:13.551Z,62.87
2023-04-29T04:30:40.408Z,55.67
2023-04-29T04:33:07.120Z,64.70
2023-04-29T04:35:33.783Z,68.23
2023-04-29T04:38:00.318Z,59.73
2023-04-29T04:40:27.726Z,49.17
2023-04-29T04:42:55.215Z,60.83
2023-04-29T04:45:22.047Z,63.60
2023-04-29T04:47:48.631Z,59.93
2023-04-29T04:50:15.259Z,66.20
2023-04-29T04:52:42.555Z,58.40
2023-04-29T04:55:09.666Z,63.37
2023-04-29T04:57:36.163Z,65.83
2023-04-29T05:00:04.000Z,66.77
2023-04-29T05:02:30.587Z,60.63
2023-04-29T05:04:57.149Z,62.43
2023-04-29T05:07:23.736Z,71.43
2023-04-29T05:09:50.574Z,69.33
2023-04-29T05:12:17.313Z,64.00
2023-04-29T05:14:43.848Z,68.43
2023-04-29T05:17:11.186Z,69.93
2023-04-29T05:19:37.685Z,69.03
2023-04-29T05:22:04.183Z,63.53
2023-04-29T05:24:30.888Z,70.37
2023-04-29T05:26:57.412Z,65.07
2023-04-29T05:29:24.010Z,78.23
2023-04-29T05:31:51.184Z,64.53
2023-04-29T05:34:17.787Z,69.90
2023-04-29T05:36:44.311Z,73.77
2023-04-29T05:39:11.219Z,65.30
2023-04-29T05:41:37.739Z,73.37
2023-04-29T05:44:04.417Z,66.00
2023-04-29T05:46:31.092Z,70.33
2023-04-29T05:48:57.589Z,68.77
2023-04-29T05:51:24.083Z,71.60
2023-04-29T05:53:50.684Z,73.63
2023-04-29T05:56:17.931Z,64.20
2023-04-29T05:58:44.440Z,65.80
2023-04-29T06:01:11.332Z,67.53
2023-04-29T06:03:38.987Z,69.87
2023-04-29T06:06:05.915Z,69.20
2023-04-29T06:08:32.456Z,66.33
2023-04-29T06:10:58.957Z,60.20
2023-04-29T06:13:26.178Z,57.63
2023-04-29T06:15:52.808Z,62.33
2023-04-29T06:18:20.758Z,57.70
2023-04-29T06:20:47.374Z,57.03
2023-04-29T06:23:14.073Z,62.37
2023-04-29T06:25:40.675Z,55.87
2023-04-29T06:28:08.383Z,52.30
2023-04-29T06:30:34.981Z,54.20
2023-04-29T06:33:01.549Z,57.20
2023-04-29T06:35:28.208Z,58.73
2023-04-29T06:37:56.403Z,51.07
2023-04-29T06:40:22.931Z,50.10
2023-04-29T06:42:49.433Z,49.30
2023-04-29T06:45:16.041Z,48.80
2023-04-29T06:47:43.520Z,49.23
2023-04-29T06:50:10.505Z,48.10
2023-04-29T06:52:37.079Z,43.90
2023-04-29T06:55:03.902Z,43.93
2023-04-29T06:57:31.999Z,46.53
2023-04-29T06:59:58.778Z,43.70
2023-04-29T07:02:25.427Z,41.40
2023-04-29T07:04:52.553Z,47.30
2023-04-29T07:07:19.319Z,43.47
2023-04-29T07:09:45.911Z,47.07
2023-04-29T07:12:12.676Z,47.53
2023-04-29T07:14:40.727Z,48.17
2023-04-29T07:17:07.433Z,49.47
2023-04-29T07:19:34.104Z,45.40
2023-04-29T07:22:00.982Z,43.43
2023-04-29T07:24:27.593Z,49.33
2023-04-29T07:26:54.129Z,45.00
2023-04-29T07:29:20.713Z,43.83
2023-04-29T07:31:47.226Z,39.77
2023-04-29T07:34:13.884Z,42.37
2023-04-29T07:36:40.607Z,39.50
2023-04-29T07:39:07.154Z,42.47
2023-04-29T07:41:33.752Z,41.13
2023-04-29T07:44:00.474Z,40.67
2023-04-29T07:46:27.108Z,38.90
2023-04-29T07:48:53.640Z,38.50
2023-04-29T07:51:20.202Z,36.67
2023-04-29T07:53:46.697Z,38.43
2023-04-29T07:56:13.289Z,35.30
2023-04-29T07:58:39.980Z,34.60
2023-04-29T08:01:12.101Z,35.03
2023-04-29T08:03:41.125Z,33.93
2023-04-29T08:06:08.794Z,31.63
2023-04-29T08:08:35.604Z,33.93
2023-04-29T08:11:02.122Z,30.60
2023-04-29T08:13:28.660Z,38.37
2023-04-29T08:15:55.601Z,33.67
2023-04-29T08:18:22.223Z,32.07
2023-04-29T08:20:51.883Z,33.67
2023-04-29T08:23:18.432Z,35.53
2023-04-29T08:25:45.047Z,32.67
2023-04-29T08:28:11.664Z,32.27
2023-04-29T08:30:40.732Z,38.10
2023-04-29T08:33:08.433Z,35.77
2023-04-29T08:35:38.426Z,37.47
2023-04-29T08:38:06.219Z,35.17
2023-04-29T08:40:36.978Z,35.37
2023-04-29T08:43:04.810Z,35.13
2023-04-29T08:45:32.461Z,37.57
2023-04-29T08:48:00.799Z,42.37
2023-04-29T08:50:28.411Z,41.03
2023-04-29T08:52:56.050Z,36.90
2023-04-29T08:55:23.012Z,34.37
2023-04-29T08:57:51.460Z,37.43
2023-04-29T09:00:19.636Z,34.17
2023-04-29T09:02:56.446Z,37.07
2023-04-29T09:05:24.121Z,27.97
2023-04-29T09:07:52.413Z,27.97
2023-04-29T09:10:19.769Z,28.77
2023-04-29T09:12:46.679Z,22.30
2023-04-29T09:15:13.273Z,23.50
2023-04-29T09:17:47.859Z,23.27
2023-04-29T09:20:23.286Z,21.03
2023-04-29T09:22:51.823Z,17.83
2023-04-29T09:25:18.505Z,18.30
2023-04-29T09:27:45.155Z,17.30
2023-04-29T09:30:13.396Z,18.00
2023-04-29T09:32:39.998Z,13.93
2023-04-29T09:35:23.602Z,14.60
2023-04-29T09:37:50.255Z,17.30
2023-04-29T09:40:43.475Z,15.37
2023-04-29T09:43:18.897Z,16.20
2023-04-29T09:45:47.148Z,14.07
2023-04-29T09:48:15.550Z,14.83
2023-04-29T09:50:46.943Z,13.97
2023-04-29T09:53:28.835Z,14.33
2023-04-29T09:56:03.402Z,12.77
2023-04-29T09:58:33.961Z,12.53
2023-04-29T10:01:02.483Z,12.43
2023-04-29T10:03:39.493Z,15.63
2023-04-29T10:06:07.465Z,14.63
2023-04-29T10:08:34.807Z,16.10
2023-04-29T10:11:03.567Z,17.13
2023-04-29T10:13:30.969Z,15.67
2023-04-29T10:16:23.637Z,16.97
2023-04-29T10:18:55.346Z,13.80
2023-04-29T10:21:29.619Z,16.17
2023-04-29T10:23:58.515Z,18.47
2023-04-29T10:26:29.252Z,21.87
2023-04-29T10:28:57.327Z,23.30
2023-04-29T10:31:27.304Z,25.93
2023-04-29T10:33:57.829Z,18.50
2023-04-29T10:36:28.336Z,23.30
2023-04-29T10:38:58.124Z,22.50
2023-04-29T10:41:33.653Z,22.13
2023-04-29T10:44:02.155Z,23.83
2023-04-29T10:46:30.363Z,21.03
2023-04-29T10:49:07.041Z,23.03
2023-04-29T10:51:42.329Z,26.00
2023-04-29T10:54:16.828Z,24.63
2023-04-29T10:56:52.505Z,26.47
2023-04-29T10:59:27.871Z,25.73
2023-04-29T11:01:55.087Z,25.30
2023-04-29T11:04:22.883Z,24.27
2023-04-29T11:06:55.218Z,27.67
2023-04-29T11:09:27.940Z,26.30
2023-04-29T11:12:08.594Z,25.27
2023-04-29T11:14:41.359Z,26.40
2023-04-29T11:17:10.317Z,22.13
2023-04-29T11:19:46.102Z,26.20
2023-04-29T11:22:33.835Z,23.90
2023-04-29T11:25:03.142Z,23.57
2023-04-29T11:27:32.290Z,21.63
2023-04-29T11:30:00.239Z,21.83
2023-04-29T11:32:40.188Z,25.23
2023-04-29T11:35:12.372Z,22.00
2023-04-29T11:37:40.149Z,24.00
2023-04-29T11:40:07.728Z,22.33
2023-04-29T11:42:36.578Z,24.33
2023-04-29T11:45:03.838Z,22.53
2023-04-29T11:47:31.157Z,22.63
2023-04-29T11:50:10.013Z,24.00
2023-04-29T11:52:39.127Z,24.27
2023-04-29T11:55:08.495Z,24.43
2023-04-29T11:57:35.878Z,21.53
2023-04-29T12:00:02.753Z,20.50
2023-04-29T12:02:34.591Z,26.80
2023-04-29T12:05:07.368Z,22.33
2023-04-29T12:07:35.539Z,24.17
2023-04-29T12:10:02.093Z,23.10
2023-04-29T12:12:29.575Z,23.33
2023-04-29T12:14:56.503Z,23.27
2023-04-29T12:17:24.314Z,23.23
2023-04-29T12:19:51.180Z,19.43
2023-04-29T12:22:19.561Z,24.37
2023-04-29T12:24:46.692Z,21.97
2023-04-29T12:27:13.488Z,21.97
2023-04-29T12:29:40.617Z,23.50
2023-04-29T12:32:08.935Z,22.43
2023-04-29T12:34:35.634Z,23.03
2023-04-29T12:37:02.361Z,21.77
2023-04-29T12:39:30.185Z,27.60
2023-04-29T12:42:01.410Z,24.80
2023-04-29T12:44:38.464Z,19.70
2023-04-29T12:47:13.495Z,18.43
2023-04-29T12:49:45.245Z,20.13
2023-04-29T12:52:12.624Z,20.73
2023-04-29T12:54:43.342Z,22.60
2023-04-29T12:57:10.953Z,18.70
2023-04-29T12:59:38.492Z,17.80
2023-04-29T13:02:05.356Z,18.10
2023-04-29T13:04:32.422Z,16.50
2023-04-29T13:07:02.748Z,21.07
2023-04-29T13:09:30.451Z,18.85
2023-04-29T13:11:57.664Z,18.20
2023-04-29T13:14:24.289Z,20.60
2023-04-29T13:16:51.177Z,15.32
2023-04-29T13:19:28.145Z,13.43
2023-04-29T13:21:56.920Z,17.08
2023-04-29T13:24:23.739Z,16.40
2023-04-29T13:26:52.379Z,15.38
2023-04-29T13:29:19.514Z,22.33
2023-04-29T13:31:46.112Z,13.02
2023-04-29T13:34:12.823Z,14.25
2023-04-29T13:36:39.420Z,13.63
2023-04-29T13:39:06.117Z,14.65
2023-04-29T13:41:35.201Z,16.27
2023-04-29T13:44:03.063Z,12.45
2023-04-29T13:46:32.475Z,13.15
2023-04-29T13:54:49.149Z,13.60
2023-04-29T13:59:39.966Z,12.00
2023-04-29T14:04:31.738Z,16.92
2023-04-29T14:06:58.474Z,27.27
2023-04-29T14:09:25.151Z,16.10
2023-04-29T14:11:51.827Z,14.25
2023-04-29T14:14:18.378Z,12.38
2023-04-29T14:16:44.906Z,11.40
2023-04-29T14:19:11.573Z,12.43
2023-04-29T14:21:38.093Z,12.20
2023-04-29T14:24:04.702Z,12.82
2023-04-29T14:26:31.836Z,14.80
2023-04-29T14:29:00.057Z,12.73
2023-04-29T14:31:29.096Z,14.50
2023-04-29T14:33:56.827Z,16.13
2023-04-29T14:36:23.565Z,12.47
2023-04-29T14:38:50.214Z,12.37
2023-04-29T14:41:16.937Z,11.73
2023-04-29T14:43:43.700Z,13.27
2023-04-29T14:46:10.639Z,19.70
2023-04-29T14:48:37.274Z,15.10
2023-04-29T14:51:04.214Z,14.10
2023-04-29T14:53:30.811Z,13.37
2023-04-29T14:55:57.498Z,16.60
2023-04-29T14:58:24.083Z,15.53
2023-04-29T15:00:51.114Z,13.43
2023-04-29T15:03:22.368Z,15.40
2023-04-29T15:05:50.834Z,16.30
2023-04-29T15:08:17.954Z,13.47
2023-04-29T15:10:49.873Z,11.97
2023-04-29T15:13:16.415Z,12.63
2023-04-29T15:15:43.023Z,14.50
2023-04-29T15:18:09.673Z,14.57
2023-04-29T15:20:37.443Z,11.97
2023-04-29T15:23:05.246Z,11.87
2023-04-29T15:25:33.463Z,13.37
2023-04-29T15:28:00.454Z,14.57
2023-04-29T15:30:27.486Z,15.57
2023-04-29T15:32:57.042Z,13.70
2023-04-29T15:35:23.652Z,15.03
2023-04-29T15:37:50.240Z,13.13
2023-04-29T15:40:17.454Z,12.30
2023-04-29T15:42:44.233Z,11.83
2023-04-29T15:45:11.581Z,13.67
2023-04-29T15:47:38.212Z,14.30
2023-04-29T15:50:05.304Z,12.00
2023-04-29T15:52:31.804Z,13.67
2023-04-29T15:54:58.460Z,10.43
2023-04-29T15:57:25.812Z,11.13
2023-04-29T15:59:52.633Z,10.97
2023-04-29T16:02:20.273Z,11.40
2023-04-29T16:04:46.857Z,11.20
2023-04-29T16:07:13.452Z,13.47
2023-04-29T16:09:40.007Z,13.70
2023-04-29T16:12:06.621Z,10.93
2023-04-29T16:14:33.363Z,12.60
2023-04-29T16:17:00.642Z,11.50
2023-04-29T16:19:27.296Z,14.47
2023-04-29T16:21:53.896Z,12.90
2023-04-29T16:24:20.785Z,10.43
2023-04-29T16:26:48.063Z,10.67
2023-04-29T16:29:14.732Z,9.63
2023-04-29T16:31:41.600Z,9.83
2023-04-29T16:34:08.771Z,10.30
2023-04-29T16:36:35.921Z,9.90
2023-04-29T16:39:04.143Z,10.53
2023-04-29T16:41:31.876Z,10.13
2023-04-29T16:43:58.753Z,11.97
2023-04-29T16:46:25.831Z,14.40
2023-04-29T16:48:56.497Z,12.30
2023-04-29T16:51:26.423Z,9.90
2023-04-29T16:53:53.430Z,11.50
2023-04-29T16:56:21.596Z,10.40
2023-04-29T16:58:48.560Z,9.93
2023-04-29T17:01:16.055Z,11.03
2023-04-29T17:03:42.710Z,10.47
2023-04-29T17:06:09.718Z,13.40
2023-04-29T17:08:36.519Z,10.00
2023-04-29T17:11:04.972Z,10.27
2023-04-29T17:13:31.557Z,11.27
2023-04-29T17:15:58.198Z,10.17
2023-04-29T17:18:24.996Z,10.87
2023-04-29T17:20:51.543Z,9.77
2023-04-29T17:23:18.242Z,12.97
2023-04-29T17:25:45.023Z,9.97
2023-04-29T17:28:11.770Z,11.00
2023-04-29T17:30:38.374Z,12.13
2023-04-29T17:33:07.959Z,10.63
2023-04-29T17:35:35.402Z,10.43
2023-04-29T17:38:02.019Z,11.07
2023-04-29T17:40:28.744Z,11.80
2023-04-29T17:42:55.326Z,10.50
2023-04-29T17:45:21.850Z,11.23
2023-04-29T17:47:48.543Z,11.63
2023-04-29T17:50:15.431Z,11.63
2023-04-29T17:52:42.429Z,11.20
2023-04-29T17:55:09.673Z,13.17
2023-04-29T17:57:37.839Z,15.13
2023-04-29T18:00:08.355Z,13.87
2023-04-29T18:02:34.954Z,14.03
2023-04-29T18:05:03.218Z,12.83
2023-04-29T18:07:29.839Z,11.43
2023-04-29T18:09:57.052Z,11.30
2023-04-29T18:12:24.553Z,11.17
2023-04-29T18:14:51.769Z,13.80
2023-04-29T18:17:18.577Z,14.10
2023-04-29T18:19:48.389Z,12.17
2023-04-29T18:22:15.335Z,14.20
2023-04-29T18:24:41.897Z,13.83
2023-04-29T18:27:09.423Z,14.63
2023-04-29T18:29:36.033Z,15.37
2023-04-29T18:32:03.436Z,12.03
2023-04-29T18:34:30.995Z,12.60
2023-04-29T18:36:57.568Z,17.77
2023-04-29T18:39:24.070Z,13.27
2023-04-29T18:41:50.903Z,16.40
2023-04-29T18:44:17.557Z,17.30
2023-04-29T18:46:44.262Z,20.67
2023-04-29T18:49:15.864Z,19.83
2023-04-29T18:51:46.531Z,66.10
2023-04-29T18:54:15.124Z,21.60
2023-04-29T18:56:43.147Z,17.53
2023-04-29T18:59:10.086Z,24.30
2023-04-29T19:01:36.626Z,17.33
2023-04-29T19:04:04.540Z,17.40
2023-04-29T19:06:32.275Z,19.10
2023-04-29T19:08:59.157Z,16.73
2023-04-29T19:11:26.357Z,18.10
2023-04-29T19:13:54.292Z,16.37
2023-04-29T19:16:20.903Z,21.87
2023-04-29T19:18:47.618Z,21.40
2023-04-29T19:21:14.756Z,18.43
2023-04-29T19:23:41.742Z,21.93
2023-04-29T19:26:09.135Z,20.80
2023-04-29T19:28:36.028Z,17.07
2023-04-29T19:31:03.149Z,23.33
2023-04-29T19:33:30.856Z,17.67
2023-04-29T19:35:57.435Z,19.00
2023-04-29T19:38:25.407Z,22.57
2023-04-29T19:40:54.639Z,25.13
2023-04-29T19:43:21.292Z,20.90
2023-04-29T19:45:47.888Z,21.03
2023-04-29T19:48:14.655Z,21.03
2023-04-29T19:50:41.856Z,27.07
2023-04-29T19:53:08.490Z,19.00
2023-04-29T19:55:35.025Z,24.00
2023-04-29T19:58:01.598Z,24.03
2023-04-29T20:00:28.156Z,23.50
2023-04-29T20:02:55.024Z,24.77
2023-04-29T20:05:22.388Z,21.60
2023-04-29T20:07:49.668Z,20.23
2023-04-29T20:10:16.244Z,22.77
2023-04-29T20:12:42.771Z,24.77
2023-04-29T20:15:09.723Z,22.97
2023-04-29T20:17:37.354Z,19.63
2023-04-29T20:20:04.351Z,20.63
2023-04-29T20:22:31.027Z,23.50
2023-04-29T20:24:57.524Z,24.67
2023-04-29T20:27:24.280Z,20.67
2023-04-29T20:29:50.875Z,26.23
2023-04-29T20:32:17.781Z,22.20
2023-04-29T20:34:44.504Z,28.57
2023-04-29T20:37:11.063Z,22.00
2023-04-29T20:39:38.989Z,19.80
2023-04-29T20:42:05.982Z,22.27
2023-04-29T20:44:33.226Z,25.07
2023-04-29T20:46:59.783Z,23.90
2023-04-29T20:49:26.621Z,25.67
2023-04-29T20:51:53.154Z,25.53
2023-04-29T20:54:19.674Z,22.73
2023-04-29T20:56:46.394Z,24.60
2023-04-29T20:59:12.958Z,23.73
2023-04-29T21:01:39.791Z,20.50
2023-04-29T21:04:06.847Z,21.87
2023-04-29T21:06:33.785Z,23.17
2023-04-29T21:09:00.580Z,24.53
2023-04-29T21:11:27.124Z,25.37
2023-04-29T21:13:53.643Z,31.33
2023-04-29T21:16:20.344Z,31.40
2023-04-29T21:18:46.904Z,33.33
2023-04-29T21:21:13.426Z,31.13
2023-04-29T21:23:39.959Z,33.83
2023-04-29T21:26:06.511Z,30.90
2023-04-29T21:28:33.354Z,36.87
2023-04-29T21:30:59.904Z,42.00
2023-04-29T21:33:26.533Z,36.13
2023-04-29T21:35:53.084Z,37.00
2023-04-29T21:38:19.635Z,37.60
2023-04-29T21:40:47.358Z,42.57
2023-04-29T21:43:15.739Z,34.33
2023-04-29T21:45:42.924Z,35.40
2023-04-29T21:48:17.934Z,35.07
2023-04-29T21:50:45.052Z,37.60
2023-04-29T21:53:14.448Z,32.43
2023-04-29T21:55:42.861Z,38.13
2023-04-29T21:58:10.744Z,32.60
2023-04-29T22:00:40.399Z,33.23
2023-04-29T22:03:11.349Z,38.60
2023-04-29T22:05:38.123Z,37.03
2023-04-29T22:08:07.703Z,37.60
2023-04-29T22:10:34.601Z,33.60
2023-04-29T22:13:01.183Z,34.20
2023-04-29T22:15:29.214Z,31.10
2023-04-29T22:17:57.111Z,41.97
2023-04-29T22:20:24.107Z,38.67
2023-04-29T22:22:51.204Z,39.60
2023-04-29T22:25:19.660Z,36.83
2023-04-29T22:27:46.302Z,38.33
2023-04-29T22:30:13.638Z,39.27
2023-04-29T22:32:40.585Z,40.97
2023-04-29T22:35:07.640Z,45.80
2023-04-29T22:37:34.149Z,39.03
2023-04-29T22:40:00.695Z,40.93
2023-04-29T22:42:27.207Z,42.20
2023-04-29T22:44:53.736Z,45.23
2023-04-29T22:47:20.243Z,45.17
2023-04-29T22:49:46.863Z,55.20
2023-04-29T22:52:13.396Z,50.47
2023-04-29T22:54:39.933Z,53.70
2023-04-29T22:57:07.241Z,54.40
2023-04-29T22:59:33.791Z,55.47
2023-04-29T23:02:00.384Z,57.23
2023-04-29T23:04:26.936Z,58.03
2023-04-29T23:06:53.487Z,56.60
2023-04-29T23:09:20.271Z,63.37
2023-04-29T23:11:46.831Z,54.47
2023-04-29T23:14:13.529Z,57.73
2023-04-29T23:16:40.080Z,54.70
2023-04-29T23:19:06.810Z,57.07
2023-04-29T23:21:33.299Z,58.23
2023-04-29T23:23:59.841Z,49.60
2023-04-29T23:26:26.577Z,54.00
2023-04-29T23:28:53.063Z,47.33
2023-04-29T23:31:19.683Z,48.57
2023-04-29T23:33:46.319Z,50.13
2023-04-29T23:36:13.085Z,44.03
2023-04-29T23:38:39.615Z,53.30
2023-04-29T23:41:06.163Z,53.50
2023-04-29T23:43:32.662Z,50.20
2023-04-29T23:45:59.188Z,47.83
2023-04-29T23:48:25.753Z,46.33
2023-04-29T23:50:52.257Z,43.67
2023-04-29T23:53:18.804Z,42.30
2023-04-29T23:55:45.388Z,45.83
2023-04-29T23:58:11.965Z,42.53
